sensor_id;sensor_type;location;lat;lon;timestamp;P1;durP1;ratioP1;P2;durP2;ratioP2
60582;SDS011;46415;47.536;19.066;2024-01-11T06:26:46;31.33;;;15.00;;
60582;SDS011;46415;47.536;19.066;2024-01-11T06:29:49;29.30;;;15.40;;
60582;SDS011;46415;47.536;19.066;2024-01-11T06:32:52;30.95;;;15.27;;
60582;SDS011;46415;47.536;19.066;2024-01-11T06:35:57;33.10;;;15.52;;
60582;SDS011;46415;47.536;19.066;2024-01-11T06:39:00;35.10;;;16.52;;
60582;SDS011;46415;47.536;19.066;2024-01-11T06:42:04;31.40;;;16.42;;
60582;SDS011;46415;47.536;19.066;2024-01-11T06:45:07;36.92;;;17.70;;
60582;SDS011;46415;47.536;19.066;2024-01-11T06:48:11;30.95;;;16.17;;
60582;SDS011;46415;47.536;19.066;2024-01-11T06:51:20;33.35;;;15.45;;
60582;SDS011;46415;47.536;19.066;2024-01-11T06:54:24;35.35;;;16.20;;
60582;SDS011;46415;47.536;19.066;2024-01-11T06:57:27;33.88;;;16.60;;
60582;SDS011;46415;47.536;19.066;2024-01-11T07:00:31;33.60;;;16.08;;
60582;SDS011;46415;47.536;19.066;2024-01-11T07:03:34;33.28;;;16.23;;
60582;SDS011;46415;47.536;19.066;2024-01-11T07:06:37;30.88;;;17.27;;
60582;SDS011;46415;47.536;19.066;2024-01-11T07:09:40;36.95;;;17.70;;
60582;SDS011;46415;47.536;19.066;2024-01-11T07:12:43;39.55;;;16.67;;
60582;SDS011;46415;47.536;19.066;2024-01-11T07:15:48;33.47;;;17.27;;
60582;SDS011;46415;47.536;19.066;2024-01-11T07:18:51;34.03;;;15.98;;
60582;SDS011;46415;47.536;19.066;2024-01-11T07:21:54;31.08;;;16.08;;
60582;SDS011;46415;47.536;19.066;2024-01-11T07:24:57;35.92;;;17.05;;
60582;SDS011;46415;47.536;19.066;2024-01-11T07:28:00;34.20;;;16.80;;
60582;SDS011;46415;47.536;19.066;2024-01-11T07:31:03;33.20;;;17.27;;
60582;SDS011;46415;47.536;19.066;2024-01-11T07:34:06;37.45;;;17.70;;
60582;SDS011;46415;47.536;19.066;2024-01-11T07:37:09;31.87;;;17.20;;
60582;SDS011;46415;47.536;19.066;2024-01-11T07:40:12;36.67;;;17.10;;
60582;SDS011;46415;47.536;19.066;2024-01-11T07:43:16;40.92;;;17.50;;
60582;SDS011;46415;47.536;19.066;2024-01-11T07:46:19;33.83;;;17.75;;
60582;SDS011;46415;47.536;19.066;2024-01-11T07:49:37;34.58;;;17.08;;
60582;SDS011;46415;47.536;19.066;2024-01-11T07:52:40;32.25;;;17.15;;
60582;SDS011;46415;47.536;19.066;2024-01-11T07:55:46;32.45;;;16.40;;
60582;SDS011;46415;47.536;19.066;2024-01-11T07:58:50;27.65;;;14.73;;
60582;SDS011;46415;47.536;19.066;2024-01-11T08:01:53;32.20;;;15.82;;
60582;SDS011;46415;47.536;19.066;2024-01-11T08:04:56;30.90;;;15.85;;
60582;SDS011;46415;47.536;19.066;2024-01-11T08:07:59;32.78;;;16.10;;
60582;SDS011;46415;47.536;19.066;2024-01-11T08:11:05;25.50;;;13.62;;
60582;SDS011;46415;47.536;19.066;2024-01-11T08:14:09;27.55;;;13.40;;
60582;SDS011;46415;47.536;19.066;2024-01-11T08:17:13;21.67;;;12.93;;
60582;SDS011;46415;47.536;19.066;2024-01-11T08:20:16;24.33;;;12.98;;
60582;SDS011;46415;47.536;19.066;2024-01-11T08:23:19;27.37;;;14.13;;
60582;SDS011;46415;47.536;19.066;2024-01-11T08:26:23;23.75;;;13.48;;
60582;SDS011;46415;47.536;19.066;2024-01-11T08:29:26;26.25;;;12.68;;
60582;SDS011;46415;47.536;19.066;2024-01-11T08:32:30;26.35;;;12.60;;
60582;SDS011;46415;47.536;19.066;2024-01-11T08:35:34;21.60;;;10.77;;
60582;SDS011;46415;47.536;19.066;2024-01-11T08:38:37;18.95;;;10.15;;
60582;SDS011;46415;47.536;19.066;2024-01-11T08:41:41;19.45;;;10.25;;
60582;SDS011;46415;47.536;19.066;2024-01-11T08:44:45;16.23;;;9.25;;
60582;SDS011;46415;47.536;19.066;2024-01-11T08:47:48;17.98;;;9.35;;
60582;SDS011;46415;47.536;19.066;2024-01-11T08:50:51;14.18;;;8.05;;
60582;SDS011;46415;47.536;19.066;2024-01-11T08:53:54;15.18;;;8.27;;
60582;SDS011;46415;47.536;19.066;2024-01-11T08:56:57;16.52;;;7.40;;
60582;SDS011;46415;47.536;19.066;2024-01-11T09:00:01;11.65;;;7.07;;
60582;SDS011;46415;47.536;19.066;2024-01-11T09:03:05;14.93;;;7.87;;
60582;SDS011;46415;47.536;19.066;2024-01-11T09:06:08;14.48;;;7.45;;
60582;SDS011;46415;47.536;19.066;2024-01-11T09:09:11;14.90;;;8.30;;
60582;SDS011;46415;47.536;19.066;2024-01-11T09:12:16;13.62;;;7.90;;
60582;SDS011;46415;47.536;19.066;2024-01-11T09:15:19;14.85;;;7.80;;
60582;SDS011;46415;47.536;19.066;2024-01-11T09:18:22;16.80;;;8.30;;
60582;SDS011;46415;47.536;19.066;2024-01-11T09:21:28;18.17;;;8.75;;
60582;SDS011;46415;47.536;19.066;2024-01-11T09:24:31;12.40;;;7.60;;
60582;SDS011;46415;47.536;19.066;2024-01-11T09:27:39;11.07;;;6.80;;
60582;SDS011;46415;47.536;19.066;2024-01-11T09:30:42;13.00;;;7.70;;
60582;SDS011;46415;47.536;19.066;2024-01-11T09:33:45;11.88;;;6.55;;
60582;SDS011;46415;47.536;19.066;2024-01-11T09:36:48;11.93;;;6.68;;
60582;SDS011;46415;47.536;19.066;2024-01-11T09:39:54;14.55;;;7.28;;
60582;SDS011;46415;47.536;19.066;2024-01-11T09:42:57;11.68;;;6.70;;
60582;SDS011;46415;47.536;19.066;2024-01-11T09:46:02;10.23;;;5.68;;
60582;SDS011;46415;47.536;19.066;2024-01-11T09:49:09;9.80;;;5.10;;
60582;SDS011;46415;47.536;19.066;2024-01-11T09:52:13;9.52;;;5.30;;
60582;SDS011;46415;47.536;19.066;2024-01-11T09:55:18;8.55;;;5.00;;
60582;SDS011;46415;47.536;19.066;2024-01-11T09:58:21;8.07;;;5.68;;
60582;SDS011;46415;47.536;19.066;2024-01-11T10:01:25;9.18;;;5.30;;
60582;SDS011;46415;47.536;19.066;2024-01-11T10:04:28;7.87;;;5.53;;
60582;SDS011;46415;47.536;19.066;2024-01-11T10:07:31;12.88;;;6.70;;
60582;SDS011;46415;47.536;19.066;2024-01-11T10:10:35;11.88;;;7.00;;
60582;SDS011;46415;47.536;19.066;2024-01-11T10:13:38;12.37;;;7.18;;
60582;SDS011;46415;47.536;19.066;2024-01-11T10:16:41;12.40;;;6.68;;
60582;SDS011;46415;47.536;19.066;2024-01-11T10:19:46;14.82;;;7.62;;
60582;SDS011;46415;47.536;19.066;2024-01-11T10:22:49;15.32;;;8.52;;
60582;SDS011;46415;47.536;19.066;2024-01-11T10:25:56;11.32;;;6.82;;
60582;SDS011;46415;47.536;19.066;2024-01-11T10:28:59;12.48;;;7.12;;
60582;SDS011;46415;47.536;19.066;2024-01-11T10:32:03;16.73;;;8.30;;
60582;SDS011;46415;47.536;19.066;2024-01-11T10:35:07;14.70;;;8.50;;
60582;SDS011;46415;47.536;19.066;2024-01-11T10:38:10;16.58;;;9.20;;
60582;SDS011;46415;47.536;19.066;2024-01-11T10:41:14;18.70;;;9.77;;
60582;SDS011;46415;47.536;19.066;2024-01-11T10:44:22;16.42;;;9.52;;
60582;SDS011;46415;47.536;19.066;2024-01-11T10:47:27;16.20;;;10.10;;
60582;SDS011;46415;47.536;19.066;2024-01-11T10:50:34;18.50;;;8.80;;
60582;SDS011;46415;47.536;19.066;2024-01-11T10:53:45;16.23;;;9.82;;
60582;SDS011;46415;47.536;19.066;2024-01-11T10:56:50;21.50;;;10.82;;
60582;SDS011;46415;47.536;19.066;2024-01-11T10:59:54;18.58;;;10.88;;
60582;SDS011;46415;47.536;19.066;2024-01-11T11:02:58;21.50;;;10.82;;
60582;SDS011;46415;47.536;19.066;2024-01-11T11:06:04;22.17;;;10.85;;
60582;SDS011;46415;47.536;19.066;2024-01-11T11:09:08;25.00;;;12.73;;
60582;SDS011;46415;47.536;19.066;2024-01-11T11:12:13;22.15;;;12.35;;
60582;SDS011;46415;47.536;19.066;2024-01-11T11:15:20;24.20;;;12.73;;
60582;SDS011;46415;47.536;19.066;2024-01-11T11:18:25;21.25;;;12.75;;
60582;SDS011;46415;47.536;19.066;2024-01-11T11:21:29;30.27;;;13.80;;
60582;SDS011;46415;47.536;19.066;2024-01-11T11:24:35;25.08;;;12.95;;
60582;SDS011;46415;47.536;19.066;2024-01-11T11:27:37;24.83;;;12.82;;
60582;SDS011;46415;47.536;19.066;2024-01-11T11:30:41;20.95;;;12.20;;
60582;SDS011;46415;47.536;19.066;2024-01-11T11:33:45;23.70;;;12.63;;
60582;SDS011;46415;47.536;19.066;2024-01-11T11:36:52;21.60;;;12.15;;
60582;SDS011;46415;47.536;19.066;2024-01-11T11:39:57;23.17;;;13.32;;
60582;SDS011;46415;47.536;19.066;2024-01-11T11:43:04;20.95;;;12.35;;
60582;SDS011;46415;47.536;19.066;2024-01-11T11:46:08;22.00;;;12.65;;
60582;SDS011;46415;47.536;19.066;2024-01-11T11:49:11;28.80;;;14.48;;
60582;SDS011;46415;47.536;19.066;2024-01-11T11:52:15;23.87;;;13.43;;
60582;SDS011;46415;47.536;19.066;2024-01-11T11:55:19;23.08;;;13.77;;
60582;SDS011;46415;47.536;19.066;2024-01-11T11:58:23;25.80;;;14.32;;
60582;SDS011;46415;47.536;19.066;2024-01-11T12:01:26;27.05;;;13.82;;
60582;SDS011;46415;47.536;19.066;2024-01-11T12:04:29;28.60;;;15.02;;
60582;SDS011;46415;47.536;19.066;2024-01-11T12:07:32;24.58;;;15.20;;
60582;SDS011;46415;47.536;19.066;2024-01-11T12:10:35;26.87;;;13.98;;
60582;SDS011;46415;47.536;19.066;2024-01-11T12:13:38;24.33;;;14.57;;
60582;SDS011;46415;47.536;19.066;2024-01-11T12:16:42;23.40;;;14.30;;
60582;SDS011;46415;47.536;19.066;2024-01-11T12:19:45;22.45;;;13.77;;
60582;SDS011;46415;47.536;19.066;2024-01-11T12:22:48;27.92;;;13.80;;
60582;SDS011;46415;47.536;19.066;2024-01-11T12:25:51;22.45;;;13.02;;
60582;SDS011;46415;47.536;19.066;2024-01-11T12:28:54;27.02;;;13.50;;
60582;SDS011;46415;47.536;19.066;2024-01-11T12:31:57;27.92;;;13.93;;
60582;SDS011;46415;47.536;19.066;2024-01-11T12:35:04;25.40;;;13.62;;
60582;SDS011;46415;47.536;19.066;2024-01-11T12:38:07;24.77;;;13.00;;
60582;SDS011;46415;47.536;19.066;2024-01-11T12:41:12;21.40;;;12.75;;
60582;SDS011;46415;47.536;19.066;2024-01-11T12:44:15;23.12;;;13.52;;
60582;SDS011;46415;47.536;19.066;2024-01-11T12:47:20;23.02;;;13.23;;
60582;SDS011;46415;47.536;19.066;2024-01-11T12:50:23;24.25;;;12.70;;
60582;SDS011;46415;47.536;19.066;2024-01-11T12:53:29;22.70;;;13.38;;
60582;SDS011;46415;47.536;19.066;2024-01-11T12:56:32;23.08;;;13.07;;
60582;SDS011;46415;47.536;19.066;2024-01-11T12:59:35;22.70;;;12.73;;
60582;SDS011;46415;47.536;19.066;2024-01-11T13:02:39;22.75;;;12.40;;
60582;SDS011;46415;47.536;19.066;2024-01-11T13:05:47;21.95;;;12.02;;
60582;SDS011;46415;47.536;19.066;2024-01-11T13:08:51;20.98;;;11.55;;
60582;SDS011;46415;47.536;19.066;2024-01-11T13:11:54;18.05;;;10.68;;
60582;SDS011;46415;47.536;19.066;2024-01-11T13:14:57;19.55;;;10.02;;
60582;SDS011;46415;47.536;19.066;2024-01-11T13:18:01;17.58;;;9.43;;
60582;SDS011;46415;47.536;19.066;2024-01-11T13:21:04;17.37;;;10.35;;
60582;SDS011;46415;47.536;19.066;2024-01-11T13:24:09;18.90;;;9.23;;
60582;SDS011;46415;47.536;19.066;2024-01-11T13:27:12;18.23;;;10.20;;
60582;SDS011;46415;47.536;19.066;2024-01-11T13:30:16;20.08;;;10.00;;
60582;SDS011;46415;47.536;19.066;2024-01-11T13:33:19;16.73;;;9.18;;
60582;SDS011;46415;47.536;19.066;2024-01-11T13:36:25;15.20;;;9.20;;
60582;SDS011;46415;47.536;19.066;2024-01-11T13:39:28;15.63;;;9.52;;
60582;SDS011;46415;47.536;19.066;2024-01-11T13:42:31;18.17;;;10.10;;
60582;SDS011;46415;47.536;19.066;2024-01-11T13:45:34;19.08;;;9.25;;
60582;SDS011;46415;47.536;19.066;2024-01-11T13:48:40;14.82;;;9.50;;
60582;SDS011;46415;47.536;19.066;2024-01-11T13:51:44;16.27;;;8.98;;
60582;SDS011;46415;47.536;19.066;2024-01-11T13:55:02;15.32;;;8.98;;
60582;SDS011;46415;47.536;19.066;2024-01-11T13:58:06;12.95;;;8.10;;
60582;SDS011;46415;47.536;19.066;2024-01-11T14:01:09;19.70;;;8.95;;
60582;SDS011;46415;47.536;19.066;2024-01-11T14:04:12;13.85;;;8.55;;
60582;SDS011;46415;47.536;19.066;2024-01-11T14:07:15;15.90;;;9.10;;
60582;SDS011;46415;47.536;19.066;2024-01-11T14:10:18;17.75;;;8.63;;
60582;SDS011;46415;47.536;19.066;2024-01-11T14:13:21;17.23;;;8.77;;
60582;SDS011;46415;47.536;19.066;2024-01-11T14:16:24;12.57;;;7.37;;
60582;SDS011;46415;47.536;19.066;2024-01-11T14:19:29;11.45;;;7.20;;
60582;SDS011;46415;47.536;19.066;2024-01-11T14:22:32;14.43;;;7.18;;
60582;SDS011;46415;47.536;19.066;2024-01-11T14:25:35;11.73;;;7.00;;
60582;SDS011;46415;47.536;19.066;2024-01-11T14:28:39;12.18;;;7.22;;
60582;SDS011;46415;47.536;19.066;2024-01-11T14:31:45;11.43;;;7.00;;
60582;SDS011;46415;47.536;19.066;2024-01-11T14:34:48;12.57;;;7.62;;
60582;SDS011;46415;47.536;19.066;2024-01-11T14:37:51;16.45;;;8.48;;
60582;SDS011;46415;47.536;19.066;2024-01-11T14:40:55;16.35;;;9.32;;
60582;SDS011;46415;47.536;19.066;2024-01-11T14:44:02;18.45;;;10.10;;
60582;SDS011;46415;47.536;19.066;2024-01-11T14:47:05;18.70;;;10.52;;
60582;SDS011;46415;47.536;19.066;2024-01-11T14:50:09;18.67;;;10.40;;
60582;SDS011;46415;47.536;19.066;2024-01-11T14:53:13;17.80;;;10.38;;
60582;SDS011;46415;47.536;19.066;2024-01-11T14:56:16;16.87;;;9.98;;
60582;SDS011;46415;47.536;19.066;2024-01-11T14:59:20;18.87;;;9.90;;
60582;SDS011;46415;47.536;19.066;2024-01-11T15:02:23;17.23;;;10.25;;
60582;SDS011;46415;47.536;19.066;2024-01-11T15:05:27;17.77;;;9.75;;
60582;SDS011;46415;47.536;19.066;2024-01-11T15:08:29;20.73;;;11.73;;
60582;SDS011;46415;47.536;19.066;2024-01-11T15:11:33;18.27;;;11.15;;
60582;SDS011;46415;47.536;19.066;2024-01-11T15:14:38;21.33;;;12.25;;
60582;SDS011;46415;47.536;19.066;2024-01-11T15:17:41;23.10;;;12.45;;
60582;SDS011;46415;47.536;19.066;2024-01-11T15:20:44;24.98;;;12.27;;
60582;SDS011;46415;47.536;19.066;2024-01-11T15:23:47;21.85;;;12.75;;
60582;SDS011;46415;47.536;19.066;2024-01-11T15:26:51;21.48;;;12.93;;
60582;SDS011;46415;47.536;19.066;2024-01-11T15:29:54;20.12;;;11.45;;
60582;SDS011;46415;47.536;19.066;2024-01-11T15:32:57;16.37;;;9.65;;
60582;SDS011;46415;47.536;19.066;2024-01-11T15:36:04;16.55;;;9.00;;
60582;SDS011;46415;47.536;19.066;2024-01-11T15:39:07;15.18;;;7.37;;
60582;SDS011;46415;47.536;19.066;2024-01-11T15:42:28;13.50;;;8.15;;
60582;SDS011;46415;47.536;19.066;2024-01-11T15:45:31;14.18;;;8.25;;
60582;SDS011;46415;47.536;19.066;2024-01-11T15:48:36;13.50;;;8.20;;
60582;SDS011;46415;47.536;19.066;2024-01-11T15:51:39;12.25;;;7.82;;
60582;SDS011;46415;47.536;19.066;2024-01-11T15:54:42;12.85;;;7.05;;
60582;SDS011;46415;47.536;19.066;2024-01-11T15:57:45;14.25;;;8.65;;
60582;SDS011;46415;47.536;19.066;2024-01-11T16:00:48;18.62;;;8.25;;
60582;SDS011;46415;47.536;19.066;2024-01-11T16:03:51;17.42;;;9.95;;
60582;SDS011;46415;47.536;19.066;2024-01-11T16:06:55;20.10;;;10.82;;
60582;SDS011;46415;47.536;19.066;2024-01-11T16:09:59;19.05;;;10.68;;
60582;SDS011;46415;47.536;19.066;2024-01-11T16:13:01;19.95;;;10.43;;
60582;SDS011;46415;47.536;19.066;2024-01-11T16:16:06;20.58;;;10.18;;
60582;SDS011;46415;47.536;19.066;2024-01-11T16:19:09;19.90;;;11.20;;
60582;SDS011;46415;47.536;19.066;2024-01-11T16:22:13;20.90;;;11.70;;
60582;SDS011;46415;47.536;19.066;2024-01-11T16:25:16;23.67;;;12.37;;
60582;SDS011;46415;47.536;19.066;2024-01-11T16:28:19;24.50;;;13.10;;
60582;SDS011;46415;47.536;19.066;2024-01-11T16:31:22;26.20;;;13.80;;
60582;SDS011;46415;47.536;19.066;2024-01-11T16:34:25;23.10;;;13.07;;
60582;SDS011;46415;47.536;19.066;2024-01-11T16:37:28;29.52;;;15.80;;
60582;SDS011;46415;47.536;19.066;2024-01-11T16:40:31;28.40;;;15.40;;
60582;SDS011;46415;47.536;19.066;2024-01-11T16:43:34;32.90;;;16.35;;
60582;SDS011;46415;47.536;19.066;2024-01-11T16:46:38;29.17;;;16.10;;
60582;SDS011;46415;47.536;19.066;2024-01-11T16:49:41;31.58;;;15.65;;
60582;SDS011;46415;47.536;19.066;2024-01-11T16:52:44;30.88;;;16.67;;
60582;SDS011;46415;47.536;19.066;2024-01-11T16:55:47;31.58;;;16.40;;
60582;SDS011;46415;47.536;19.066;2024-01-11T16:58:51;33.60;;;17.33;;
60582;SDS011;46415;47.536;19.066;2024-01-11T17:01:54;26.65;;;14.75;;
60582;SDS011;46415;47.536;19.066;2024-01-11T17:04:57;28.85;;;16.00;;
60582;SDS011;46415;47.536;19.066;2024-01-11T17:08:00;30.10;;;15.57;;
60582;SDS011;46415;47.536;19.066;2024-01-11T17:11:03;29.35;;;15.70;;
60582;SDS011;46415;47.536;19.066;2024-01-11T17:14:09;27.75;;;15.13;;
60582;SDS011;46415;47.536;19.066;2024-01-11T17:17:12;30.83;;;15.60;;
60582;SDS011;46415;47.536;19.066;2024-01-11T17:20:15;33.78;;;16.35;;
60582;SDS011;46415;47.536;19.066;2024-01-11T17:23:19;34.20;;;17.12;;
60582;SDS011;46415;47.536;19.066;2024-01-11T17:26:21;28.60;;;16.30;;
60582;SDS011;46415;47.536;19.066;2024-01-11T17:29:24;34.92;;;15.98;;
60582;SDS011;46415;47.536;19.066;2024-01-11T17:32:28;33.60;;;16.50;;
60582;SDS011;46415;47.536;19.066;2024-01-11T17:35:31;30.50;;;15.45;;
60582;SDS011;46415;47.536;19.066;2024-01-11T17:38:34;32.47;;;16.30;;
60582;SDS011;46415;47.536;19.066;2024-01-11T17:41:38;28.73;;;15.35;;
60582;SDS011;46415;47.536;19.066;2024-01-11T17:44:43;29.83;;;15.68;;
60582;SDS011;46415;47.536;19.066;2024-01-11T17:47:47;28.60;;;15.88;;
60582;SDS011;46415;47.536;19.066;2024-01-11T17:50:50;35.25;;;17.40;;
60582;SDS011;46415;47.536;19.066;2024-01-11T17:53:53;30.58;;;15.93;;
60582;SDS011;46415;47.536;19.066;2024-01-11T17:56:56;34.28;;;15.55;;
60582;SDS011;46415;47.536;19.066;2024-01-11T17:59:59;32.55;;;15.70;;
60582;SDS011;46415;47.536;19.066;2024-01-11T18:03:02;29.75;;;14.60;;
60582;SDS011;46415;47.536;19.066;2024-01-11T18:06:08;31.65;;;15.65;;
60582;SDS011;46415;47.536;19.066;2024-01-11T18:09:11;27.05;;;13.93;;
60582;SDS011;46415;47.536;19.066;2024-01-11T18:12:15;34.65;;;14.70;;
60582;SDS011;46415;47.536;19.066;2024-01-11T18:15:18;30.65;;;15.82;;
60582;SDS011;46415;47.536;19.066;2024-01-11T18:18:21;29.65;;;14.85;;
60582;SDS011;46415;47.536;19.066;2024-01-11T18:21:24;28.10;;;14.38;;
60582;SDS011;46415;47.536;19.066;2024-01-11T18:24:27;30.92;;;14.77;;
60582;SDS011;46415;47.536;19.066;2024-01-11T18:27:30;27.48;;;15.45;;
60582;SDS011;46415;47.536;19.066;2024-01-11T18:30:34;28.20;;;14.90;;
60582;SDS011;46415;47.536;19.066;2024-01-11T18:33:37;29.17;;;14.82;;
60582;SDS011;46415;47.536;19.066;2024-01-11T18:36:43;32.08;;;16.12;;
60582;SDS011;46415;47.536;19.066;2024-01-11T18:39:47;29.15;;;16.05;;
60582;SDS011;46415;47.536;19.066;2024-01-11T18:42:50;31.40;;;16.45;;
60582;SDS011;46415;47.536;19.066;2024-01-11T18:45:53;31.08;;;15.48;;
60582;SDS011;46415;47.536;19.066;2024-01-11T18:48:56;31.00;;;15.60;;
60582;SDS011;46415;47.536;19.066;2024-01-11T18:51:59;32.05;;;16.80;;
60582;SDS011;46415;47.536;19.066;2024-01-11T18:55:03;34.60;;;17.20;;
60582;SDS011;46415;47.536;19.066;2024-01-11T18:58:18;33.30;;;17.52;;
60582;SDS011;46415;47.536;19.066;2024-01-11T19:01:22;34.25;;;17.17;;
60582;SDS011;46415;47.536;19.066;2024-01-11T19:04:28;32.00;;;17.50;;
60582;SDS011;46415;47.536;19.066;2024-01-11T19:07:31;33.10;;;16.52;;
60582;SDS011;46415;47.536;19.066;2024-01-11T19:10:34;33.22;;;16.80;;
60582;SDS011;46415;47.536;19.066;2024-01-11T19:13:37;31.17;;;16.95;;
60582;SDS011;46415;47.536;19.066;2024-01-11T19:16:40;31.90;;;16.30;;
60582;SDS011;46415;47.536;19.066;2024-01-11T19:19:43;32.58;;;17.62;;
60582;SDS011;46415;47.536;19.066;2024-01-11T19:22:46;33.22;;;16.25;;
60582;SDS011;46415;47.536;19.066;2024-01-11T19:25:49;30.58;;;16.27;;
60582;SDS011;46415;47.536;19.066;2024-01-11T19:28:51;29.95;;;16.42;;
60582;SDS011;46415;47.536;19.066;2024-01-11T19:31:54;32.72;;;16.58;;
60582;SDS011;46415;47.536;19.066;2024-01-11T19:34:57;31.73;;;16.65;;
60582;SDS011;46415;47.536;19.066;2024-01-11T19:38:00;34.95;;;16.75;;
60582;SDS011;46415;47.536;19.066;2024-01-11T19:41:03;33.63;;;17.62;;
60582;SDS011;46415;47.536;19.066;2024-01-11T19:44:06;32.10;;;16.30;;
60582;SDS011;46415;47.536;19.066;2024-01-11T19:47:12;28.87;;;15.02;;
60582;SDS011;46415;47.536;19.066;2024-01-11T19:50:15;31.37;;;16.45;;
60582;SDS011;46415;47.536;19.066;2024-01-11T19:53:18;32.15;;;16.27;;
60582;SDS011;46415;47.536;19.066;2024-01-11T19:56:22;29.37;;;15.10;;
60582;SDS011;46415;47.536;19.066;2024-01-11T19:59:25;29.10;;;14.18;;
60582;SDS011;46415;47.536;19.066;2024-01-11T20:02:29;28.15;;;14.98;;
60582;SDS011;46415;47.536;19.066;2024-01-11T20:05:32;30.92;;;15.57;;
60582;SDS011;46415;47.536;19.066;2024-01-11T20:08:34;26.73;;;14.43;;
60582;SDS011;46415;47.536;19.066;2024-01-11T20:11:40;28.73;;;14.73;;
60582;SDS011;46415;47.536;19.066;2024-01-11T20:14:43;31.37;;;15.25;;
60582;SDS011;46415;47.536;19.066;2024-01-11T20:17:49;26.62;;;14.63;;
60582;SDS011;46415;47.536;19.066;2024-01-11T20:20:52;26.70;;;13.82;;
60582;SDS011;46415;47.536;19.066;2024-01-11T20:23:56;28.12;;;13.55;;
60582;SDS011;46415;47.536;19.066;2024-01-11T20:26:59;24.35;;;13.98;;
60582;SDS011;46415;47.536;19.066;2024-01-11T20:30:07;23.95;;;14.95;;
60582;SDS011;46415;47.536;19.066;2024-01-11T20:33:13;23.77;;;13.00;;
60582;SDS011;46415;47.536;19.066;2024-01-11T20:36:18;26.35;;;13.73;;
60582;SDS011;46415;47.536;19.066;2024-01-11T20:39:21;25.37;;;13.77;;
60582;SDS011;46415;47.536;19.066;2024-01-11T20:42:24;26.12;;;13.70;;
60582;SDS011;46415;47.536;19.066;2024-01-11T20:45:27;28.15;;;13.75;;
60582;SDS011;46415;47.536;19.066;2024-01-11T20:48:33;26.33;;;14.57;;
60582;SDS011;46415;47.536;19.066;2024-01-11T20:51:39;25.95;;;13.27;;
60582;SDS011;46415;47.536;19.066;2024-01-11T20:54:45;26.15;;;12.85;;
60582;SDS011;46415;47.536;19.066;2024-01-11T20:57:51;26.52;;;13.30;;
60582;SDS011;46415;47.536;19.066;2024-01-11T21:00:54;24.95;;;12.75;;
60582;SDS011;46415;47.536;19.066;2024-01-11T21:03:58;25.95;;;13.88;;
60582;SDS011;46415;47.536;19.066;2024-01-11T21:07:02;24.10;;;13.10;;
60582;SDS011;46415;47.536;19.066;2024-01-11T21:10:05;23.73;;;13.95;;
60582;SDS011;46415;47.536;19.066;2024-01-11T21:13:09;26.80;;;12.48;;
60582;SDS011;46415;47.536;19.066;2024-01-11T21:16:14;25.95;;;13.95;;
60582;SDS011;46415;47.536;19.066;2024-01-11T21:19:17;26.10;;;13.32;;
60582;SDS011;46415;47.536;19.066;2024-01-11T21:22:20;25.45;;;14.63;;
60582;SDS011;46415;47.536;19.066;2024-01-11T21:25:23;23.60;;;13.45;;
60582;SDS011;46415;47.536;19.066;2024-01-11T21:28:27;27.15;;;13.18;;
60582;SDS011;46415;47.536;19.066;2024-01-11T21:31:29;21.95;;;11.70;;
60582;SDS011;46415;47.536;19.066;2024-01-11T21:34:35;24.12;;;13.52;;
60582;SDS011;46415;47.536;19.066;2024-01-11T21:37:38;25.10;;;13.95;;
60582;SDS011;46415;47.536;19.066;2024-01-11T21:40:42;27.77;;;12.85;;
60582;SDS011;46415;47.536;19.066;2024-01-11T21:43:45;23.27;;;12.07;;
60582;SDS011;46415;47.536;19.066;2024-01-11T21:46:48;26.80;;;13.10;;
60582;SDS011;46415;47.536;19.066;2024-01-11T21:49:51;26.12;;;13.05;;
60582;SDS011;46415;47.536;19.066;2024-01-11T21:52:54;25.00;;;13.35;;
60582;SDS011;46415;47.536;19.066;2024-01-11T21:55:57;22.48;;;11.70;;
60582;SDS011;46415;47.536;19.066;2024-01-11T21:59:01;26.15;;;12.82;;
60582;SDS011;46415;47.536;19.066;2024-01-11T22:02:05;20.88;;;11.57;;
60582;SDS011;46415;47.536;19.066;2024-01-11T22:05:08;22.85;;;12.02;;
60582;SDS011;46415;47.536;19.066;2024-01-11T22:08:11;20.98;;;12.40;;
60582;SDS011;46415;47.536;19.066;2024-01-11T22:11:14;24.17;;;13.30;;
60582;SDS011;46415;47.536;19.066;2024-01-11T22:14:19;28.23;;;13.65;;
60582;SDS011;46415;47.536;19.066;2024-01-11T22:17:22;24.37;;;12.15;;
60582;SDS011;46415;47.536;19.066;2024-01-11T22:20:25;25.92;;;13.55;;
60582;SDS011;46415;47.536;19.066;2024-01-11T22:23:28;24.10;;;12.88;;
60582;SDS011;46415;47.536;19.066;2024-01-11T22:26:31;24.23;;;12.60;;
60582;SDS011;46415;47.536;19.066;2024-01-11T22:29:34;23.35;;;11.98;;
60582;SDS011;46415;47.536;19.066;2024-01-11T22:32:37;24.60;;;13.20;;
60582;SDS011;46415;47.536;19.066;2024-01-11T22:35:40;24.17;;;12.85;;
60582;SDS011;46415;47.536;19.066;2024-01-11T22:38:43;27.55;;;12.55;;
60582;SDS011;46415;47.536;19.066;2024-01-11T22:41:46;24.00;;;12.30;;
60582;SDS011;46415;47.536;19.066;2024-01-11T22:44:50;23.20;;;11.82;;
60582;SDS011;46415;47.536;19.066;2024-01-11T22:47:53;19.73;;;10.90;;
60582;SDS011;46415;47.536;19.066;2024-01-11T22:50:56;23.15;;;11.45;;
60582;SDS011;46415;47.536;19.066;2024-01-11T22:53:59;23.50;;;11.50;;
60582;SDS011;46415;47.536;19.066;2024-01-11T22:57:02;23.80;;;12.25;;
60582;SDS011;46415;47.536;19.066;2024-01-11T23:00:05;23.87;;;12.23;;
60582;SDS011;46415;47.536;19.066;2024-01-11T23:03:23;27.58;;;12.70;;
60582;SDS011;46415;47.536;19.066;2024-01-11T23:06:29;26.80;;;13.05;;
60582;SDS011;46415;47.536;19.066;2024-01-11T23:09:32;21.70;;;11.93;;
60582;SDS011;46415;47.536;19.066;2024-01-11T23:12:36;25.98;;;13.07;;
60582;SDS011;46415;47.536;19.066;2024-01-11T23:15:39;24.42;;;12.55;;
60582;SDS011;46415;47.536;19.066;2024-01-11T23:18:41;23.15;;;11.73;;
60582;SDS011;46415;47.536;19.066;2024-01-11T23:21:47;26.48;;;12.90;;
60582;SDS011;46415;47.536;19.066;2024-01-11T23:24:50;21.60;;;12.05;;
60582;SDS011;46415;47.536;19.066;2024-01-11T23:27:52;21.02;;;12.10;;
60582;SDS011;46415;47.536;19.066;2024-01-11T23:30:56;24.27;;;12.48;;
60582;SDS011;46415;47.536;19.066;2024-01-11T23:33:58;23.90;;;12.20;;
60582;SDS011;46415;47.536;19.066;2024-01-11T23:37:02;21.25;;;11.73;;
60582;SDS011;46415;47.536;19.066;2024-01-11T23:40:05;22.67;;;12.82;;
60582;SDS011;46415;47.536;19.066;2024-01-11T23:43:09;23.73;;;12.40;;
60582;SDS011;46415;47.536;19.066;2024-01-11T23:46:11;25.30;;;12.63;;
60582;SDS011;46415;47.536;19.066;2024-01-11T23:49:14;24.45;;;12.30;;
60582;SDS011;46415;47.536;19.066;2024-01-11T23:52:17;22.10;;;11.68;;
60582;SDS011;46415;47.536;19.066;2024-01-11T23:55:21;22.48;;;11.85;;
60582;SDS011;46415;47.536;19.066;2024-01-11T23:58:23;26.77;;;12.30;;
